Time;durP1;ratioP1;P1;durP2;ratioP2;P2;SDS_P1;SDS_P2;PMS_P1;PMS_P2;Temp;Humidity;BMP_temperature;BMP_pressure;BME280_temperature;BME280_humidity;BME280_pressure;Samples;Min_cycle;Max_cycle;Signal;HPM_P1;HPM_P2
2021/05/09 00:01:27;;;;;;;3.03;2.10;;;11.30;92.00;;;;;;5037450;28;20178;-37
2021/05/09 00:03:54;;;;;;;2.17;1.97;;;11.30;92.00;;;;;;5038593;28;20213;-36
2021/05/09 00:06:20;;;;;;;2.50;2.30;;;11.30;92.10;;;;;;5037894;28;20197;-36
2021/05/09 00:08:46;;;;;;;3.00;2.40;;;11.30;92.20;;;;;;5070265;28;20820;-35
2021/05/09 00:11:11;;;;;;;2.63;2.30;;;11.30;92.20;;;;;;5038311;28;20429;-37
2021/05/09 00:13:37;;;;;;;2.97;2.67;;;11.30;92.40;;;;;;5038221;28;20468;-37
2021/05/09 00:16:04;;;;;;;2.97;2.70;;;11.30;92.50;;;;;;5038106;28;20214;-36
2021/05/09 00:18:29;;;;;;;3.03;2.73;;;11.20;92.60;;;;;;5038016;28;20488;-36
2021/05/09 00:20:58;;;;;;;3.40;2.67;;;11.20;92.60;;;;;;5037819;28;20990;-36
2021/05/09 00:23:24;;;;;;;2.70;2.27;;;11.20;92.70;;;;;;5037145;28;22422;-36
2021/05/09 00:25:50;;;;;;;2.23;2.00;;;11.10;92.80;;;;;;5036761;28;20536;-36
2021/05/09 00:28:16;;;;;;;2.33;2.13;;;11.10;93.00;;;;;;5035550;28;20170;-37
2021/05/09 00:30:41;;;;;;;2.93;2.20;;;11.10;93.10;;;;;;5036103;28;20202;-36
2021/05/09 00:33:07;;;;;;;2.50;1.97;;;11.10;93.10;;;;;;5035499;28;20827;-35
2021/05/09 00:35:33;;;;;;;2.33;2.03;;;11.00;93.10;;;;;;5035619;28;20277;-36
2021/05/09 00:37:59;;;;;;;2.60;2.30;;;11.00;93.20;;;;;;5036523;28;20435;-36
2021/05/09 00:40:24;;;;;;;4.33;2.50;;;11.00;93.40;;;;;;5036609;28;20205;-36
2021/05/09 00:42:54;;;;;;;3.33;2.10;;;10.90;93.60;;;;;;5037559;28;20174;-36
2021/05/09 00:45:20;;;;;;;5.20;2.80;;;10.90;93.80;;;;;;5037839;28;20214;-35
2021/05/09 00:47:48;;;;;;;2.30;2.10;;;10.90;93.80;;;;;;5037410;28;20419;-36
2021/05/09 00:50:13;;;;;;;4.10;2.63;;;10.90;93.80;;;;;;5068339;28;20183;-36
2021/05/09 00:52:39;;;;;;;4.27;2.43;;;10.90;93.70;;;;;;5035075;28;20428;-36
2021/05/09 00:55:08;;;;;;;2.80;2.43;;;10.90;93.70;;;;;;5068463;28;20280;-37
2021/05/09 00:57:35;;;;;;;2.90;2.07;;;10.90;93.60;;;;;;5035543;28;20427;-41
2021/05/09 01:00:04;;;;;;;2.83;2.23;;;10.90;93.60;;;;;;5036340;28;20461;-42
2021/05/09 01:02:30;;;;;;;2.40;2.20;;;10.90;93.60;;;;;;5036728;28;20428;-43
2021/05/09 01:04:59;;;;;;;2.60;2.10;;;10.90;93.70;;;;;;5069272;28;20782;-43
2021/05/09 01:07:26;;;;;;;2.10;1.90;;;10.90;93.80;;;;;;5037427;28;20504;-43
2021/05/09 01:09:51;;;;;;;2.73;1.90;;;10.90;93.80;;;;;;5069589;28;20417;-43
2021/05/09 01:12:17;;;;;;;3.30;2.57;;;10.90;93.80;;;;;;5036994;28;20769;-44
2021/05/09 01:14:43;;;;;;;3.03;2.00;;;10.90;93.80;;;;;;5037105;28;20194;-44
2021/05/09 01:17:09;;;;;;;5.07;2.70;;;10.90;93.80;;;;;;5037276;28;20252;-43
2021/05/09 01:19:36;;;;;;;3.30;2.33;;;10.90;94.00;;;;;;5036920;28;20436;-44
2021/05/09 01:22:04;;;;;;;2.97;2.37;;;10.90;94.20;;;;;;5036706;28;20178;-44
2021/05/09 01:24:29;;;;;;;3.80;2.60;;;10.80;94.30;;;;;;5037554;28;20476;-44
2021/05/09 01:26:55;;;;;;;2.97;2.70;;;10.80;94.30;;;;;;5036665;28;20913;-44
2021/05/09 01:29:21;;;;;;;3.10;2.80;;;10.70;94.40;;;;;;5036819;28;20552;-44
2021/05/09 01:31:47;;;;;;;3.13;2.80;;;10.70;94.50;;;;;;5036642;28;20268;-43
2021/05/09 01:34:13;;;;;;;2.60;2.40;;;10.70;94.60;;;;;;5052381;28;20252;-43
2021/05/09 01:36:39;;;;;;;4.13;2.83;;;10.70;94.80;;;;;;5036641;28;20447;-43
2021/05/09 01:39:06;;;;;;;2.30;1.70;;;10.60;94.70;;;;;;5036784;28;20507;-43
2021/05/09 01:41:32;;;;;;;1.90;1.70;;;10.60;94.80;;;;;;5069805;28;20591;-44
2021/05/09 01:43:57;;;;;;;2.57;2.37;;;10.60;94.90;;;;;;5036951;28;20635;-43
2021/05/09 01:46:23;;;;;;;3.00;2.80;;;10.60;95.20;;;;;;5037036;28;20605;-43
2021/05/09 01:48:48;;;;;;;5.77;2.47;;;10.60;95.30;;;;;;5036779;28;20733;-43
2021/05/09 01:51:14;;;;;;;2.27;2.07;;;10.50;95.50;;;;;;5036908;28;20620;-43
2021/05/09 01:53:40;;;;;;;2.40;2.00;;;10.50;95.50;;;;;;5036435;28;20237;-43
2021/05/09 01:56:05;;;;;;;4.10;2.20;;;10.50;95.60;;;;;;5036717;28;20190;-43
2021/05/09 01:58:31;;;;;;;3.27;2.70;;;10.50;95.60;;;;;;5036414;28;20460;-44
2021/05/09 02:00:57;;;;;;;2.33;2.13;;;10.50;95.50;;;;;;5036847;28;20187;-41
2021/05/09 02:03:22;;;;;;;5.03;2.37;;;10.50;95.40;;;;;;5036821;28;20229;-43
2021/05/09 02:05:48;;;;;;;3.77;2.50;;;10.50;95.30;;;;;;5036980;28;20483;-43
2021/05/09 02:08:14;;;;;;;2.63;2.37;;;10.50;95.60;;;;;;5036555;28;20496;-43
2021/05/09 02:10:39;;;;;;;3.10;2.20;;;10.60;95.30;;;;;;5039546;28;20174;-43
2021/05/09 02:13:05;;;;;;;2.13;1.83;;;10.60;95.30;;;;;;5040324;28;20282;-44
2021/05/09 02:15:31;;;;;;;2.73;2.53;;;10.60;95.30;;;;;;5040477;28;20192;-44
2021/05/09 02:17:56;;;;;;;2.30;2.10;;;10.60;95.30;;;;;;5039932;28;20182;-42
2021/05/09 02:20:22;;;;;;;2.33;2.13;;;10.60;95.20;;;;;;5039926;28;20487;-43
2021/05/09 02:22:49;;;;;;;2.20;2.00;;;10.70;95.20;;;;;;5040598;28;20185;-44
2021/05/09 02:25:15;;;;;;;3.43;2.17;;;10.70;95.20;;;;;;5039866;28;20234;-43
2021/05/09 02:27:40;;;;;;;2.47;2.20;;;10.70;95.20;;;;;;5040403;28;20463;-44
2021/05/09 02:30:07;;;;;;;2.17;1.97;;;10.70;95.20;;;;;;5039507;28;20206;-43
2021/05/09 02:32:33;;;;;;;2.13;1.93;;;10.70;95.30;;;;;;5040210;28;20179;-43
2021/05/09 02:34:58;;;;;;;2.40;2.20;;;10.60;95.40;;;;;;5039837;28;20429;-44
2021/05/09 02:37:24;;;;;;;2.43;2.23;;;10.60;95.60;;;;;;5039948;28;20212;-44
2021/05/09 02:39:50;;;;;;;2.90;1.70;;;10.60;95.70;;;;;;5039842;28;20190;-43
2021/05/09 02:42:15;;;;;;;2.80;2.20;;;10.60;95.90;;;;;;5040172;28;20253;-43
2021/05/09 02:44:41;;;;;;;3.27;2.50;;;10.50;95.90;;;;;;5039846;28;20237;-44
2021/05/09 02:47:07;;;;;;;2.63;2.13;;;10.50;96.10;;;;;;5040297;28;20573;-44
2021/05/09 02:49:33;;;;;;;2.73;2.53;;;10.50;96.20;;;;;;5040226;28;20423;-44
2021/05/09 02:52:00;;;;;;;3.43;2.30;;;10.50;96.30;;;;;;5039376;28;20429;-43
2021/05/09 02:54:26;;;;;;;2.80;2.37;;;10.50;96.40;;;;;;5039859;28;20193;-44
2021/05/09 02:56:52;;;;;;;2.93;2.57;;;10.40;96.50;;;;;;5039797;28;20448;-44
2021/05/09 02:59:17;;;;;;;2.57;2.17;;;10.40;96.60;;;;;;5039133;28;20820;-44
2021/05/09 03:01:43;;;;;;;3.00;2.47;;;10.40;96.70;;;;;;5039959;28;20183;-44
2021/05/09 03:04:09;;;;;;;2.90;2.50;;;10.40;96.70;;;;;;5038106;28;20217;-44
2021/05/09 03:06:35;;;;;;;2.70;2.00;;;10.40;96.80;;;;;;5039380;28;20723;-44
2021/05/09 03:09:00;;;;;;;3.40;2.40;;;10.40;96.90;;;;;;5039698;28;20251;-43
2021/05/09 03:11:28;;;;;;;2.73;2.53;;;10.40;97.10;;;;;;5039306;28;20568;-44
2021/05/09 03:13:55;;;;;;;3.40;2.67;;;10.30;97.00;;;;;;5038795;28;20186;-44
2021/05/09 03:16:21;;;;;;;2.73;2.33;;;10.20;97.00;;;;;;5039527;28;20440;-44
2021/05/09 03:18:46;;;;;;;3.30;2.63;;;10.20;97.20;;;;;;5039303;28;20422;-43
2021/05/09 03:21:14;;;;;;;2.70;2.50;;;10.20;97.40;;;;;;5038121;28;20552;-44
2021/05/09 03:23:39;;;;;;;2.90;2.50;;;10.10;97.50;;;;;;5038793;28;20604;-41
2021/05/09 03:26:05;;;;;;;2.70;2.50;;;10.10;97.70;;;;;;5038789;28;20427;-43
2021/05/09 03:28:31;;;;;;;3.90;2.53;;;10.10;97.60;;;;;;5038776;28;20259;-44
2021/05/09 03:30:56;;;;;;;2.93;2.40;;;10.10;97.70;;;;;;5038957;28;20438;-43
2021/05/09 03:33:22;;;;;;;3.30;2.30;;;10.10;97.80;;;;;;5038919;28;20186;-44
2021/05/09 03:35:48;;;;;;;4.70;2.60;;;10.10;97.70;;;;;;5039155;28;20194;-42
2021/05/09 03:38:13;;;;;;;2.53;2.33;;;10.10;97.70;;;;;;5039130;28;20248;-43
2021/05/09 03:40:40;;;;;;;2.53;2.33;;;10.20;97.70;;;;;;5039008;28;20267;-44
2021/05/09 03:43:07;;;;;;;2.53;2.07;;;10.10;97.60;;;;;;5039090;28;20178;-43
2021/05/09 03:45:33;;;;;;;2.80;1.80;;;10.20;97.50;;;;;;5038802;28;20484;-43
2021/05/09 03:47:58;;;;;;;2.50;2.30;;;10.20;97.30;;;;;;5038742;28;20421;-43
2021/05/09 03:50:24;;;;;;;3.63;2.23;;;10.30;97.10;;;;;;5038873;28;20416;-44
2021/05/09 03:52:49;;;;;;;2.37;2.17;;;10.30;97.00;;;;;;5038395;28;20448;-44
2021/05/09 03:55:15;;;;;;;2.67;2.47;;;10.40;96.90;;;;;;5069440;28;20337;-43
2021/05/09 03:57:41;;;;;;;2.53;2.33;;;10.40;96.60;;;;;;5036725;28;20244;-44
2021/05/09 04:00:07;;;;;;;4.63;2.77;;;10.50;96.40;;;;;;5037638;28;20308;-43
2021/05/09 04:02:32;;;;;;;2.07;1.87;;;10.50;96.20;;;;;;5037199;28;20174;-43
2021/05/09 04:04:58;;;;;;;2.70;2.30;;;10.60;96.20;;;;;;5037274;28;20461;-44
2021/05/09 04:07:23;;;;;;;2.80;2.43;;;10.60;96.10;;;;;;5036975;28;20178;-44
2021/05/09 04:09:49;;;;;;;2.50;2.10;;;10.60;96.00;;;;;;5037367;28;20179;-43
2021/05/09 04:12:15;;;;;;;3.47;2.60;;;10.70;96.10;;;;;;5038409;28;20299;-43
2021/05/09 04:14:41;;;;;;;2.43;2.23;;;10.70;96.30;;;;;;5038288;28;20208;-44
2021/05/09 04:17:06;;;;;;;3.17;2.50;;;10.70;96.50;;;;;;5037742;28;20210;-43
2021/05/09 04:19:32;;;;;;;2.90;2.20;;;10.70;96.70;;;;;;5037734;28;20849;-44
2021/05/09 04:21:58;;;;;;;2.90;2.37;;;10.80;96.80;;;;;;5038063;28;20190;-44
2021/05/09 04:24:23;;;;;;;3.00;2.13;;;10.80;96.80;;;;;;5038016;28;20214;-44
2021/05/09 04:26:49;;;;;;;2.40;2.20;;;10.80;96.80;;;;;;5037839;28;20237;-44
2021/05/09 04:29:16;;;;;;;3.47;2.70;;;10.90;96.80;;;;;;5038106;28;20177;-44
2021/05/09 04:31:41;;;;;;;3.50;2.30;;;10.90;96.80;;;;;;5038415;28;20182;-44
2021/05/09 04:34:07;;;;;;;3.63;2.43;;;10.90;96.90;;;;;;5036580;28;20905;-44
2021/05/09 04:36:33;;;;;;;2.77;2.53;;;10.90;97.00;;;;;;5037925;28;20187;-44
2021/05/09 04:38:58;;;;;;;2.70;2.47;;;10.90;97.00;;;;;;5037420;28;20253;-43
2021/05/09 04:41:24;;;;;;;2.70;2.50;;;11.00;97.20;;;;;;5037567;28;20201;-44
2021/05/09 04:43:50;;;;;;;2.73;2.53;;;11.00;97.20;;;;;;5037682;28;20210;-43
2021/05/09 04:46:15;;;;;;;2.73;2.30;;;11.00;97.00;;;;;;5037521;28;20901;-43
2021/05/09 04:48:41;;;;;;;2.63;2.43;;;11.10;97.00;;;;;;5037624;28;20413;-45
2021/05/09 04:51:06;;;;;;;3.10;2.40;;;11.10;96.80;;;;;;5069744;28;20462;-44
2021/05/09 04:53:36;;;;;;;3.00;2.70;;;11.10;96.70;;;;;;5069508;28;20185;-45
2021/05/09 04:56:04;;;;;;;3.00;2.30;;;11.20;96.60;;;;;;5037636;28;20198;-45
2021/05/09 04:58:30;;;;;;;2.33;2.07;;;11.30;96.30;;;;;;5037501;28;20451;-44
2021/05/09 05:01:01;;;;;;;5.20;2.60;;;11.40;96.10;;;;;;5036502;28;20441;-45
2021/05/09 05:03:28;;;;;;;2.90;2.70;;;11.60;95.70;;;;;;5037637;28;20409;-44
2021/05/09 05:05:54;;;;;;;2.57;2.37;;;11.70;95.70;;;;;;5037337;28;20866;-45
2021/05/09 05:08:20;;;;;;;2.70;2.50;;;11.80;95.40;;;;;;5037063;28;20758;-45
2021/05/09 05:10:46;;;;;;;3.03;2.50;;;11.90;95.10;;;;;;5036825;28;20424;-45
2021/05/09 05:13:33;;;;;;;2.80;2.50;;;12.00;94.90;;;;;;5037384;28;20174;-45
2021/05/09 05:16:01;;;;;;;3.40;2.30;;;12.20;94.70;;;;;;5036546;28;20436;-45
2021/05/09 05:18:26;;;;;;;2.80;2.60;;;12.30;94.70;;;;;;5037047;28;20512;-45
2021/05/09 05:20:55;;;;;;;2.63;2.43;;;12.40;94.40;;;;;;5036722;28;20834;-45
2021/05/09 05:23:22;;;;;;;2.50;1.90;;;12.50;94.30;;;;;;5036680;28;20384;-43
2021/05/09 05:25:48;;;;;;;2.57;2.37;;;12.50;94.00;;;;;;5069243;28;20440;-43
2021/05/09 05:28:14;;;;;;;2.30;2.10;;;12.60;94.00;;;;;;5036878;28;20704;-43
2021/05/09 05:30:39;;;;;;;2.40;2.20;;;12.70;94.00;;;;;;5036017;28;20452;-45
2021/05/09 05:33:06;;;;;;;2.80;2.10;;;12.80;93.90;;;;;;5036645;28;20269;-44
2021/05/09 05:35:32;;;;;;;3.10;2.43;;;12.90;93.70;;;;;;5036036;28;20186;-43
2021/05/09 05:37:58;;;;;;;2.67;2.30;;;13.10;93.40;;;;;;5036820;28;20895;-44
2021/05/09 05:40:25;;;;;;;2.33;2.13;;;13.20;93.10;;;;;;5036829;28;20519;-44
2021/05/09 05:42:52;;;;;;;2.50;2.23;;;13.40;92.60;;;;;;5037105;28;20170;-45
2021/05/09 05:45:18;;;;;;;2.40;2.00;;;13.60;91.70;;;;;;5038841;28;20866;-44
2021/05/09 05:47:45;;;;;;;3.43;2.10;;;13.80;90.80;;;;;;5040826;28;20448;-44
2021/05/09 05:50:12;;;;;;;2.53;2.00;;;14.00;89.90;;;;;;5040448;28;20429;-44
2021/05/09 05:52:38;;;;;;;4.13;2.57;;;14.30;89.30;;;;;;5073190;28;20429;-44
2021/05/09 05:55:04;;;;;;;3.73;1.77;;;14.50;88.10;;;;;;5040099;28;20420;-44
2021/05/09 05:57:30;;;;;;;3.00;2.03;;;14.70;86.70;;;;;;5040869;28;20244;-45
2021/05/09 05:59:56;;;;;;;3.37;2.17;;;14.90;86.20;;;;;;5039685;28;20421;-45
2021/05/09 06:02:21;;;;;;;2.17;1.97;;;15.10;86.00;;;;;;5041182;28;20236;-44
2021/05/09 06:04:48;;;;;;;2.30;2.00;;;15.30;84.60;;;;;;5041324;28;20296;-44
2021/05/09 06:07:14;;;;;;;2.80;1.90;;;15.50;83.60;;;;;;5040906;28;20209;-43
2021/05/09 06:09:40;;;;;;;3.27;2.07;;;15.70;83.00;;;;;;5039907;28;20406;-44
2021/05/09 06:12:06;;;;;;;1.77;1.57;;;15.90;83.00;;;;;;5040583;28;20193;-44
2021/05/09 06:14:32;;;;;;;2.37;1.97;;;16.10;82.20;;;;;;5040593;28;20673;-44
2021/05/09 06:16:58;;;;;;;1.80;1.60;;;16.30;81.50;;;;;;5040264;28;20440;-44
2021/05/09 06:19:24;;;;;;;2.67;2.00;;;16.30;80.60;;;;;;5072394;28;20437;-44
2021/05/09 06:21:49;;;;;;;3.30;1.87;;;16.50;80.50;;;;;;5039519;28;20510;-45
2021/05/09 06:24:15;;;;;;;2.00;1.60;;;16.80;79.00;;;;;;5040110;28;20214;-43
2021/05/09 06:26:41;;;;;;;5.33;2.23;;;16.90;79.10;;;;;;5039935;28;20179;-43
2021/05/09 06:29:07;;;;;;;2.20;1.90;;;17.10;79.20;;;;;;5040019;28;20205;-43
2021/05/09 06:31:33;;;;;;;3.07;2.13;;;17.30;78.60;;;;;;5039778;28;20436;-43
2021/05/09 06:33:59;;;;;;;1.87;1.60;;;17.60;77.50;;;;;;5040077;28;20241;-43
2021/05/09 06:36:24;;;;;;;2.20;2.00;;;17.60;73.80;;;;;;5040557;28;20256;-43
2021/05/09 06:38:50;;;;;;;3.20;2.27;;;17.60;74.40;;;;;;5040658;28;20432;-43
2021/05/09 06:41:18;;;;;;;1.70;1.20;;;17.70;75.50;;;;;;5040385;28;20198;-43
2021/05/09 06:43:44;;;;;;;2.50;1.80;;;18.00;74.50;;;;;;5038511;28;20209;-42
2021/05/09 06:46:09;;;;;;;1.97;1.77;;;18.30;72.60;;;;;;5039295;28;20932;-43
2021/05/09 06:48:35;;;;;;;1.83;1.50;;;18.50;71.80;;;;;;5039687;28;20418;-44
2021/05/09 06:51:02;;;;;;;3.87;1.70;;;18.70;71.20;;;;;;5039522;28;20430;-44
2021/05/09 06:53:28;;;;;;;3.37;1.90;;;19.00;70.10;;;;;;5039502;28;20179;-45
2021/05/09 06:55:55;;;;;;;2.40;1.67;;;19.30;69.00;;;;;;5038749;28;20450;-44
2021/05/09 06:58:22;;;;;;;1.40;1.30;;;19.30;67.30;;;;;;5039363;28;20182;-45
2021/05/09 07:00:48;;;;;;;3.93;2.10;;;19.40;66.00;;;;;;5039741;28;20905;-44
2021/05/09 07:03:14;;;;;;;2.40;1.73;;;19.70;65.80;;;;;;5039281;28;20417;-44
2021/05/09 07:05:40;;;;;;;2.27;1.60;;;19.50;65.20;;;;;;5039426;28;20553;-44
2021/05/09 07:08:06;;;;;;;1.87;1.67;;;19.60;66.00;;;;;;5039714;28;20504;-45
2021/05/09 07:10:34;;;;;;;3.97;1.80;;;19.90;65.30;;;;;;5055431;28;20194;-45
2021/05/09 07:13:00;;;;;;;2.27;1.30;;;20.20;65.40;;;;;;5039580;28;20167;-44
2021/05/09 07:15:29;;;;;;;2.53;2.00;;;20.40;63.10;;;;;;5039689;28;20444;-45
2021/05/09 07:18:06;;;;;;;2.23;1.90;;;20.50;63.50;;;;;;5039515;28;20241;-45
2021/05/09 07:20:33;;;;;;;2.20;1.73;;;20.60;63.00;;;;;;5038993;28;20477;-44
2021/05/09 07:23:00;;;;;;;2.10;1.90;;;20.60;62.50;;;;;;5038657;28;20430;-45
2021/05/09 07:25:26;;;;;;;2.00;1.60;;;20.90;61.60;;;;;;5038707;28;20555;-44
2021/05/09 07:27:51;;;;;;;1.80;1.50;;;21.20;59.40;;;;;;5038812;28;20445;-44
2021/05/09 07:30:17;;;;;;;2.23;1.67;;;21.20;58.20;;;;;;5038817;28;20461;-45
2021/05/09 07:32:43;;;;;;;1.30;1.10;;;21.40;56.80;;;;;;5039128;28;20267;-45
2021/05/09 07:35:09;;;;;;;2.57;1.83;;;21.70;56.40;;;;;;5039005;28;20424;-45
2021/05/09 07:37:35;;;;;;;1.70;1.60;;;21.90;54.70;;;;;;5039120;28;20485;-45
2021/05/09 07:40:00;;;;;;;2.63;1.60;;;22.00;54.50;;;;;;5038657;28;20417;-45
2021/05/09 07:42:26;;;;;;;2.53;1.37;;;22.10;53.60;;;;;;5038678;28;20182;-45
2021/05/09 07:44:55;;;;;;;5.53;1.80;;;22.40;53.80;;;;;;5038796;28;20297;-45
2021/05/09 07:47:21;;;;;;;3.00;1.70;;;22.60;53.00;;;;;;5038354;28;20170;-45
2021/05/09 07:49:47;;;;;;;2.93;1.67;;;23.00;51.60;;;;;;5038585;28;20551;-45
2021/05/09 07:52:12;;;;;;;1.83;1.37;;;23.30;50.30;;;;;;5038855;28;20185;-45
2021/05/09 07:54:38;;;;;;;2.30;1.90;;;23.40;49.30;;;;;;5038677;28;20539;-45
2021/05/09 07:57:05;;;;;;;2.33;1.50;;;23.50;47.80;;;;;;5037677;28;20264;-45
2021/05/09 07:59:32;;;;;;;2.13;1.60;;;23.60;48.70;;;;;;5036137;28;20734;-45
2021/05/09 08:01:58;;;;;;;1.80;1.30;;;23.50;48.60;;;;;;5037378;28;20612;-45
2021/05/09 08:04:23;;;;;;;2.50;1.40;;;23.80;48.70;;;;;;5036585;28;20555;-45
2021/05/09 08:06:49;;;;;;;1.67;1.30;;;23.80;46.80;;;;;;5036485;28;20270;-45
2021/05/09 08:09:15;;;;;;;2.60;1.40;;;23.90;47.90;;;;;;5037946;28;20179;-45
2021/05/09 08:11:40;;;;;;;1.77;1.60;;;24.10;47.30;;;;;;5068711;28;20186;-45
2021/05/09 08:14:06;;;;;;;2.17;1.97;;;24.30;46.30;;;;;;5033905;28;20428;-45
2021/05/09 08:16:31;;;;;;;2.50;1.63;;;24.30;45.10;;;;;;5036451;28;20186;-45
2021/05/09 08:18:57;;;;;;;2.20;1.70;;;24.50;45.70;;;;;;5036430;28;20179;-44
2021/05/09 08:21:23;;;;;;;2.63;1.67;;;24.70;45.70;;;;;;5036840;28;20474;-45
2021/05/09 08:23:48;;;;;;;5.20;1.80;;;25.00;45.70;;;;;;5036389;28;20307;-45
2021/05/09 08:26:14;;;;;;;2.70;1.43;;;24.90;44.70;;;;;;5037088;28;20232;-45
2021/05/09 08:28:42;;;;;;;2.17;1.67;;;25.10;43.80;;;;;;5037863;28;20401;-45
2021/05/09 08:31:10;;;;;;;2.77;1.60;;;25.20;44.40;;;;;;5037615;28;20273;-45
2021/05/09 08:33:36;;;;;;;2.80;2.60;;;25.00;43.80;;;;;;5036531;28;20850;-44
2021/05/09 08:36:01;;;;;;;2.60;1.77;;;25.20;44.30;;;;;;5037939;28;20437;-44
2021/05/09 08:38:27;;;;;;;2.10;1.90;;;25.50;43.70;;;;;;5037392;28;20182;-44
2021/05/09 08:40:52;;;;;;;2.50;1.63;;;25.80;43.90;;;;;;5037821;28;20201;-45
2021/05/09 08:43:18;;;;;;;1.37;1.27;;;25.70;43.50;;;;;;5036301;28;20201;-45
2021/05/09 08:45:44;;;;;;;2.80;1.63;;;26.00;41.50;;;;;;5036590;28;20228;-43
2021/05/09 08:48:16;;;;;;;1.50;1.40;;;25.80;40.50;;;;;;5035887;28;20251;-43
2021/05/09 08:50:42;;;;;;;2.77;1.40;;;26.10;40.00;;;;;;5035988;28;20190;-43
2021/05/09 08:53:08;;;;;;;1.60;1.50;;;26.00;39.70;;;;;;5037636;28;20417;-43
2021/05/09 08:55:34;;;;;;;2.23;1.70;;;25.60;40.20;;;;;;5036824;28;20445;-44
2021/05/09 08:57:59;;;;;;;2.60;1.80;;;25.30;39.10;;;;;;5037043;28;20193;-44
2021/05/09 09:00:26;;;;;;;1.70;1.60;;;25.30;39.70;;;;;;5037666;28;20468;-43
2021/05/09 09:02:51;;;;;;;2.27;1.63;;;25.00;38.90;;;;;;5037682;28;20304;-43
2021/05/09 09:05:17;;;;;;;2.03;1.40;;;24.90;39.50;;;;;;5037409;28;20473;-44
2021/05/09 09:07:52;;;;;;;1.80;1.60;;;24.90;40.20;;;;;;5037115;28;20187;-44
2021/05/09 09:10:40;;;;;;;2.27;1.70;;;25.40;39.10;;;;;;5036530;28;20186;-43
2021/05/09 09:13:31;;;;;;;2.03;1.83;;;25.30;39.00;;;;;;5037031;28;20727;-45
2021/05/09 09:16:00;;;;;;;2.57;1.40;;;25.70;39.50;;;;;;5037691;28;20425;-43
2021/05/09 09:18:33;;;;;;;2.30;2.03;;;25.80;38.00;;;;;;5036661;28;20421;-44
2021/05/09 09:21:18;;;;;;;3.13;1.90;;;26.00;38.20;;;;;;5036832;28;20487;-45
2021/05/09 09:23:45;;;;;;;8.10;2.07;;;25.90;38.30;;;;;;5036865;28;20443;-43
2021/05/09 09:26:50;;;;;;;1.50;1.40;;;25.80;38.30;;;;;;5037122;28;20779;-44
2021/05/09 09:29:22;;;;;;;3.27;1.47;;;26.40;38.30;;;;;;5039093;28;20454;-44
2021/05/09 09:32:09;;;;;;;1.50;1.40;;;26.00;38.10;;;;;;5036910;28;20433;-44
2021/05/09 09:34:45;;;;;;;2.13;1.80;;;26.60;38.80;;;;;;5036792;28;20762;-44
2021/05/09 09:37:13;;;;;;;1.57;1.47;;;26.70;37.20;;;;;;5036338;28;20439;-45
2021/05/09 09:39:46;;;;;;;2.67;1.60;;;27.10;37.10;;;;;;5035971;28;20448;-43
2021/05/09 09:42:12;;;;;;;2.47;2.00;;;27.10;36.70;;;;;;5035928;28;20751;-45
2021/05/09 09:44:37;;;;;;;1.97;1.80;;;27.10;36.20;;;;;;5035247;28;20862;-44
2021/05/09 09:47:03;;;;;;;1.93;1.63;;;26.90;35.80;;;;;;5034760;28;20433;-44
2021/05/09 09:49:36;;;;;;;2.87;1.90;;;26.80;36.20;;;;;;5035761;28;20170;-44
2021/05/09 09:52:07;;;;;;;2.23;2.03;;;27.10;36.10;;;;;;5035348;28;20433;-43
2021/05/09 09:54:33;;;;;;;1.70;1.60;;;27.20;35.50;;;;;;5034765;28;20432;-44
2021/05/09 09:57:00;;;;;;;3.23;1.90;;;27.70;35.70;;;;;;5035642;28;20437;-45
2021/05/09 09:59:26;;;;;;;1.83;1.37;;;28.00;35.10;;;;;;5035082;28;20182;-44
2021/05/09 10:01:52;;;;;;;2.43;1.40;;;27.60;33.90;;;;;;5034283;28;20467;-45
2021/05/09 10:04:17;;;;;;;3.03;1.90;;;27.80;35.00;;;;;;5042405;28;20560;-45
2021/05/09 10:06:43;;;;;;;1.80;1.50;;;28.10;34.90;;;;;;5087202;28;20432;-44
2021/05/09 10:09:09;;;;;;;2.70;1.53;;;27.80;34.10;;;;;;5053786;28;20184;-46
2021/05/09 10:11:36;;;;;;;4.47;2.00;;;27.80;33.80;;;;;;5055081;28;20189;-44
2021/05/09 10:14:02;;;;;;;1.57;1.47;;;27.90;34.50;;;;;;5055735;28;20907;-45
2021/05/09 10:16:30;;;;;;;2.20;2.00;;;28.50;33.70;;;;;;5055857;28;20535;-45
2021/05/09 10:19:03;;;;;;;2.03;1.83;;;28.70;33.60;;;;;;5055232;28;20780;-44
2021/05/09 10:21:35;;;;;;;1.67;1.50;;;29.10;33.10;;;;;;5055735;28;20806;-45
2021/05/09 10:24:11;;;;;;;1.97;1.60;;;29.10;33.40;;;;;;5055925;28;20471;-45
2021/05/09 10:26:47;;;;;;;1.90;1.70;;;29.00;34.10;;;;;;5056016;28;20477;-43
2021/05/09 10:29:38;;;;;;;2.20;1.50;;;29.00;33.80;;;;;;5055806;28;20412;-45
2021/05/09 10:32:18;;;;;;;1.83;1.57;;;28.90;32.80;;;;;;5059090;28;20394;-46
2021/05/09 10:34:56;;;;;;;1.90;1.57;;;29.10;32.80;;;;;;5059058;28;20422;-45
2021/05/09 10:37:45;;;;;;;2.03;1.83;;;28.50;32.70;;;;;;5060176;28;20424;-45
2021/05/09 10:40:20;;;;;;;2.10;1.90;;;28.70;33.30;;;;;;5060520;28;20440;-44
2021/05/09 10:42:46;;;;;;;1.57;1.47;;;29.30;33.60;;;;;;5060153;28;20411;-44
2021/05/09 10:45:30;;;;;;;1.70;1.60;;;29.90;33.20;;;;;;5059821;28;20486;-44
2021/05/09 10:50:55;;;;;;;2.40;1.97;;;30.10;31.90;;;;;;5059708;28;20440;-44
2021/05/09 10:56:04;;;;;;;2.10;1.50;;;29.70;32.00;;;;;;5059684;28;20193;-45
2021/05/09 10:58:39;;;;;;;1.80;1.53;;;30.40;31.80;;;;;;5058196;28;20428;-45
2021/05/09 11:01:08;;;;;;;3.20;2.10;;;30.50;31.30;;;;;;5058933;28;20808;-44
2021/05/09 11:06:05;;;;;;;4.07;3.67;;;30.20;31.60;;;;;;5059774;28;20434;-45
2021/05/09 11:08:51;;;;;;;3.13;2.83;;;30.40;31.50;;;;;;5058978;28;20905;-45
2021/05/09 11:11:25;;;;;;;3.27;2.23;;;30.70;31.50;;;;;;5059111;28;20490;-44
2021/05/09 11:16:26;;;;;;;2.90;1.77;;;30.30;31.20;;;;;;5059228;28;20419;-45
2021/05/09 11:19:01;;;;;;;2.20;2.00;;;29.80;31.00;;;;;;5058917;28;20402;-45
2021/05/09 11:21:31;;;;;;;2.20;1.77;;;30.10;31.70;;;;;;5058759;28;20446;-45
2021/05/09 11:23:58;;;;;;;2.50;1.70;;;30.50;31.80;;;;;;5058590;28;20471;-44
2021/05/09 11:26:25;;;;;;;2.50;1.80;;;30.90;31.40;;;;;;5058603;28;20495;-45
2021/05/09 11:29:14;;;;;;;3.00;1.80;;;31.20;30.40;;;;;;5059041;28;20650;-44
2021/05/09 11:31:53;;;;;;;2.97;2.00;;;31.20;30.40;;;;;;5059102;28;20539;-44
2021/05/09 11:34:21;;;;;;;2.90;1.80;;;31.80;30.00;;;;;;5058902;28;20420;-44
2021/05/09 11:36:51;;;;;;;2.07;1.87;;;31.80;30.50;;;;;;5057324;28;20432;-44
2021/05/09 11:39:28;;;;;;;2.00;1.80;;;32.30;30.00;;;;;;5059181;28;20439;-45
2021/05/09 11:41:57;;;;;;;2.00;1.60;;;32.00;29.90;;;;;;5058539;28;20501;-44
2021/05/09 11:44:29;;;;;;;1.90;1.70;;;31.60;29.70;;;;;;5058767;28;20474;-45
2021/05/09 11:46:56;;;;;;;1.80;1.70;;;31.40;30.00;;;;;;5058015;28;20420;-45
2021/05/09 11:49:27;;;;;;;2.20;1.60;;;30.80;30.10;;;;;;5090614;28;20423;-44
2021/05/09 11:51:58;;;;;;;2.13;1.57;;;31.10;30.50;;;;;;5058731;28;20431;-44
2021/05/09 11:54:28;;;;;;;1.60;1.47;;;30.50;29.70;;;;;;5056739;28;20430;-45
2021/05/09 11:56:58;;;;;;;1.97;1.60;;;31.00;30.00;;;;;;5057447;28;20742;-46
2021/05/09 11:59:43;;;;;;;1.73;1.50;;;30.90;29.70;;;;;;5058462;28;20410;-45
2021/05/09 12:02:12;;;;;;;1.83;1.40;;;31.10;29.50;;;;;;5058466;28;20770;-45
2021/05/09 12:04:38;;;;;;;1.50;1.30;;;31.20;29.30;;;;;;5058212;28;20464;-45
2021/05/09 12:07:07;;;;;;;2.33;1.50;;;31.50;29.20;;;;;;5059089;28;20505;-44
2021/05/09 12:09:32;;;;;;;1.60;1.50;;;31.50;29.30;;;;;;5059148;28;20415;-44
2021/05/09 12:11:59;;;;;;;1.70;1.60;;;31.30;29.20;;;;;;5057714;28;20954;-45
2021/05/09 12:14:25;;;;;;;1.60;1.50;;;31.60;29.80;;;;;;5058061;28;20594;-44
2021/05/09 12:16:51;;;;;;;1.60;1.50;;;31.90;29.60;;;;;;5057914;28;20432;-45
2021/05/09 12:19:18;;;;;;;2.80;1.53;;;31.70;28.90;;;;;;5057446;28;20416;-44
2021/05/09 12:22:04;;;;;;;2.70;1.60;;;32.40;29.50;;;;;;5057634;28;20714;-43
2021/05/09 12:24:44;;;;;;;2.17;1.93;;;32.80;28.90;;;;;;5056862;28;20708;-45
2021/05/09 12:27:09;;;;;;;1.90;1.80;;;33.20;28.30;;;;;;5057397;28;20409;-45
2021/05/09 12:29:48;;;;;;;2.10;1.60;;;32.40;28.60;;;;;;5057274;28;20395;-44
2021/05/09 12:32:17;;;;;;;2.40;1.50;;;32.90;29.10;;;;;;5058152;28;20185;-43
2021/05/09 12:35:09;;;;;;;1.60;1.40;;;33.50;28.70;;;;;;5058145;28;20711;-44
2021/05/09 12:37:36;;;;;;;2.47;1.50;;;33.80;27.90;;;;;;5058343;28;20401;-44
2021/05/09 12:40:23;;;;;;;2.20;2.00;;;33.70;27.50;;;;;;5057451;28;20442;-44
2021/05/09 12:43:01;;;;;;;2.13;1.50;;;34.10;28.00;;;;;;5056682;28;20788;-44
2021/05/09 12:45:37;;;;;;;2.97;1.70;;;34.00;27.90;;;;;;5057303;28;20424;-44
2021/05/09 12:48:03;;;;;;;2.30;1.70;;;34.60;27.30;;;;;;5057153;28;20383;-44
2021/05/09 12:51:05;;;;;;;3.17;1.70;;;34.00;27.90;;;;;;5055942;28;20405;-44
2021/05/09 12:53:48;;;;;;;1.77;1.67;;;33.30;28.00;;;;;;5057208;28;20424;-44
2021/05/09 12:56:30;;;;;;;2.50;1.30;;;32.60;28.40;;;;;;5056512;28;20693;-48
2021/05/09 12:59:19;;;;;;;2.10;1.90;;;32.30;28.60;;;;;;5056828;28;20469;-43
2021/05/09 13:02:01;;;;;;;2.30;1.27;;;32.00;28.40;;;;;;5058203;28;20416;-41
2021/05/09 13:04:44;;;;;;;1.53;1.20;;;32.00;28.50;;;;;;5056522;28;20461;-42